Time;durP1;ratioP1;P1;durP2;ratioP2;P2;SDS_P1;SDS_P2;PMS_P1;PMS_P2;Temp;Humidity;BMP_temperature;BMP_pressure;BME280_temperature;BME280_humidity;BME280_pressure;Samples;Min_cycle;Max_cycle;Signal;HPM_P1;HPM_P2
2024/01/04 00:00:23;;;;;;;;;7.50;6.50;;;;;8.84;100.00;98098.16;6311837;20;2740937;-41
2024/01/04 00:02:51;;;;;;;;;8.00;7.00;;;;;8.55;100.00;98109.34;6307300;20;2746174;-44
2024/01/04 00:05:19;;;;;;;;;8.50;7.00;;;;;8.35;100.00;98091.31;6279331;20;2751327;-40
2024/01/04 00:07:47;;;;;;;;;7.50;7.50;;;;;8.14;100.00;98084.00;6280304;20;2745060;-41
2024/01/04 00:10:17;;;;;;;;;10.50;6.00;;;;;8.17;100.00;98074.03;6309123;20;2754581;-40
2024/01/04 00:12:45;;;;;;;;;5.50;5.50;;;;;8.40;100.00;98083.84;6280095;20;2742016;-41
2024/01/04 00:15:13;;;;;;;;;6.00;5.00;;;;;8.41;100.00;98058.78;6279210;20;2747189;-41
2024/01/04 00:17:40;;;;;;;;;6.00;6.00;;;;;8.19;100.00;98061.38;6278644;20;2740015;-44
2024/01/04 00:20:09;;;;;;;;;9.00;9.00;;;;;8.06;100.00;98062.34;6284096;20;2639891;-42
2024/01/04 00:22:37;;;;;;;;;7.00;7.00;;;;;7.93;100.00;98068.78;6305476;20;2744076;-41
2024/01/04 00:25:06;;;;;;;;;16.00;12.00;;;;;7.97;100.00;98064.88;6276064;20;2799265;-41
2024/01/04 00:27:34;;;;;;;;;9.50;9.50;;;;;7.92;100.00;98067.91;6276965;20;2775295;-40
2024/01/04 00:30:01;;;;;;;;;10.00;10.00;;;;;7.95;100.00;98073.00;6277038;20;2790943;-40
2024/01/04 00:32:30;;;;;;;;;10.33;10.33;;;;;8.04;100.00;98076.81;6276686;20;2789871;-40
2024/01/04 00:35:00;;;;;;;;;7.60;7.60;;;;;8.30;100.00;98077.47;6334295;20;2739896;-42
2024/01/04 00:37:28;;;;;;;;;8.50;8.50;;;;;8.03;100.00;98086.66;6307125;20;2746098;-41
2024/01/04 00:39:57;;;;;;;;;11.00;9.20;;;;;8.27;100.00;98083.06;6298046;20;2764828;-43
2024/01/04 00:42:25;;;;;;;;;10.50;8.00;;;;;8.20;100.00;98090.69;6277113;20;2767002;-40
2024/01/04 00:44:54;;;;;;;;;12.40;9.20;;;;;7.95;100.00;98077.50;6297145;20;2773249;-41
2024/01/04 00:47:23;;;;;;;;;12.50;10.50;;;;;8.16;100.00;98083.84;6275511;20;2793052;-41
2024/01/04 00:49:50;;;;;;;;;9.00;9.00;;;;;8.38;100.00;98085.72;6277844;20;2762902;-41
2024/01/04 00:52:19;;;;;;;;;8.75;8.75;;;;;8.41;100.00;98080.16;6296267;20;1807732;-41
2024/01/04 00:54:47;;;;;;;;;9.00;9.00;;;;;8.20;100.00;98087.16;6302159;20;2746146;-41
2024/01/04 00:57:16;;;;;;;;;14.20;10.60;;;;;8.44;100.00;98090.63;6299448;20;2794118;-43
2024/01/04 00:59:44;;;;;;;;;15.00;13.00;;;;;8.07;100.00;98088.09;6278854;20;2801325;-41
2024/01/04 01:02:12;;;;;;;;;12.00;9.00;;;;;8.23;100.00;98087.78;6273781;20;2771150;-42
2024/01/04 01:04:41;;;;;;;;;10.00;7.00;;;;;8.01;100.00;98093.94;6277413;20;2763821;-41
2024/01/04 01:07:08;;;;;;;;;3.50;3.00;;;;;8.21;100.00;98092.38;6279389;20;2734798;-42
2024/01/04 01:09:37;;;;;;;;;10.00;9.00;;;;;8.33;100.00;98088.75;6309789;20;2754570;-41
2024/01/04 01:12:06;;;;;;;;;7.80;7.80;;;;;8.37;100.00;98084.00;6297930;20;2744193;-42
2024/01/04 01:14:34;;;;;;;;;7.50;7.50;;;;;8.46;100.00;98083.34;6307298;20;2733719;-41
2024/01/04 01:17:04;;;;;;;;;12.00;10.20;;;;;8.27;100.00;98073.19;6330858;20;2794172;-42
2024/01/04 01:19:32;;;;;;;;;12.00;11.00;;;;;8.01;100.00;98069.88;6275910;20;2798229;-43
2024/01/04 01:22:02;;;;;;;;;12.40;10.60;;;;;8.18;100.00;98065.88;6297917;20;2792142;-43
2024/01/04 01:24:30;;;;;;;;;12.00;10.00;;;;;8.05;100.00;98068.66;6272561;20;2795575;-40
2024/01/04 01:26:58;;;;;;;;;12.00;10.00;;;;;7.96;100.00;98074.72;6272651;20;2796094;-41
2024/01/04 01:29:26;;;;;;;;;12.50;9.50;;;;;7.93;100.00;98072.28;6275658;20;2781574;-40
2024/01/04 01:31:53;;;;;;;;;11.00;10.00;;;;;8.10;100.00;98062.97;6275779;20;2794068;-40
2024/01/04 01:34:23;;;;;;;;;8.60;8.60;;;;;8.29;100.00;98059.69;6300370;20;2739914;-40
2024/01/04 01:36:51;;;;;;;;;10.50;10.00;;;;;8.04;100.00;98050.94;6305766;20;2772232;-40
2024/01/04 01:39:20;;;;;;;;;9.80;7.60;;;;;8.10;100.00;98049.59;6301814;20;2746170;-40
2024/01/04 01:41:48;;;;;;;;;9.50;8.00;;;;;8.30;100.00;98050.72;6306407;20;2739844;-41
2024/01/04 01:44:19;;;;;;;;;5.33;5.33;;;;;8.11;100.00;98046.81;6317650;20;1825294;-40
2024/01/04 01:46:47;;;;;;;;;12.50;9.00;;;;;7.91;100.00;98055.53;6275146;20;2756519;-40
2024/01/04 01:49:15;;;;;;;;;11.00;10.00;;;;;8.26;100.00;98049.25;6275582;20;2791958;-40
2024/01/04 01:51:43;;;;;;;;;13.00;12.00;;;;;8.03;100.00;98040.34;6270902;20;2790077;-43
2024/01/04 01:54:12;;;;;;;;;12.00;9.00;;;;;7.98;100.00;98045.19;6278822;20;2774414;-41
2024/01/04 01:56:40;;;;;;;;;12.50;11.00;;;;;7.92;100.00;98046.53;6272603;20;2788853;-41
2024/01/04 01:59:09;;;;;;;;;12.67;12.67;;;;;7.80;100.00;98044.81;6276584;20;2796215;-40
2024/01/04 02:01:48;;;;;;;;;11.67;10.67;;;;;8.08;100.00;98046.19;6303265;20;2794038;-41
2024/01/04 02:04:17;;;;;;;;;16.00;13.33;;;;;7.90;100.00;98043.13;6301113;20;3538817;-40
2024/01/04 02:06:45;;;;;;;;;15.00;13.33;;;;;7.73;100.00;98047.09;6302182;20;3544012;-40
2024/01/04 02:09:15;;;;;;;;;13.67;13.67;;;;;7.77;100.00;98064.59;6301559;20;3521246;-40
2024/01/04 02:11:46;;;;;;;;;18.67;13.00;;;;;7.79;100.00;98072.47;6304168;20;2815011;-41
2024/01/04 02:14:15;;;;;;;;;13.00;13.00;;;;;8.04;100.00;98068.78;6298663;20;3523293;-40
2024/01/04 02:16:44;;;;;;;;;16.00;15.20;;;;;7.85;100.00;98072.03;6331832;20;2812789;-40
2024/01/04 02:19:14;;;;;;;;;13.33;12.00;;;;;7.82;100.00;98062.44;6277111;20;3515007;-40
2024/01/04 02:21:43;;;;;;;;;25.33;20.00;;;;;7.68;100.00;98055.44;6310716;20;3570073;-40
2024/01/04 02:24:11;;;;;;;;;13.00;12.00;;;;;7.83;100.00;98057.94;6276268;20;2789042;-40
2024/01/04 02:26:40;;;;;;;;;13.00;13.00;;;;;7.77;100.00;98071.78;6279711;20;3528388;-41
2024/01/04 02:29:08;;;;;;;;;17.00;16.00;;;;;7.89;100.00;98073.47;6306095;20;3548168;-41
2024/01/04 02:31:36;;;;;;;;;11.00;10.00;;;;;7.63;100.00;98078.13;6313863;20;2795096;-41
2024/01/04 02:34:06;;;;;;;;;15.20;12.00;;;;;7.74;100.00;98074.66;6302036;20;2794116;-40
2024/01/04 02:36:35;;;;;;;;;15.33;13.33;;;;;7.68;100.00;98079.47;6276870;20;3531537;-41
2024/01/04 02:39:04;;;;;;;;;11.50;10.00;;;;;7.73;100.00;98079.16;6309957;20;2784775;-41
2024/01/04 02:41:33;;;;;;;;;13.67;13.33;;;;;7.77;100.00;98064.59;6276135;20;3532587;-41
2024/01/04 02:44:01;;;;;;;;;17.00;12.67;;;;;7.82;100.00;98045.53;6308220;20;3549235;-41
2024/01/04 02:46:30;;;;;;;;;12.00;12.00;;;;;7.74;100.00;98037.25;6306100;20;3539877;-40
2024/01/04 02:48:58;;;;;;;;;13.00;12.50;;;;;7.78;100.00;98038.72;6277110;20;2805487;-41
2024/01/04 02:51:27;;;;;;;;;10.00;10.00;;;;;7.62;100.00;98034.56;6304853;20;2798207;-41
2024/01/04 02:53:57;;;;;;;;;15.00;14.33;;;;;7.41;100.00;98038.84;6275430;20;2815961;-40
2024/01/04 02:56:26;;;;;;;;;18.00;13.00;;;;;7.67;100.00;98032.38;6306148;20;3553397;-40
2024/01/04 02:58:56;;;;;;;;;16.00;11.00;;;;;7.60;100.00;98025.78;6307209;20;3515930;-40
2024/01/04 03:01:24;;;;;;;;;13.00;13.00;;;;;7.77;100.00;98023.69;6309138;20;2799707;-42
2024/01/04 03:03:55;;;;;;;;;12.33;12.33;;;;;7.78;100.00;98020.88;6274073;20;2796174;-40
2024/01/04 03:06:24;;;;;;;;;18.00;12.00;;;;;7.75;100.00;98026.47;6308006;20;2829527;-41
2024/01/04 03:08:53;;;;;;;;;15.50;12.00;;;;;7.72;100.00;98049.91;6275843;20;2793142;-41
2024/01/04 03:11:21;;;;;;;;;16.00;11.00;;;;;7.78;100.00;98065.44;6274819;20;2752375;-41
2024/01/04 03:13:49;;;;;;;;;13.00;11.00;;;;;7.81;100.00;98071.41;6277295;20;2791914;-42
2024/01/04 03:16:22;;;;;;;;;8.40;8.40;;;;;7.85;100.00;98066.69;6301325;20;2744043;-42
2024/01/04 03:18:50;;;;;;;;;9.00;9.00;;;;;8.07;100.00;98066.72;6309843;20;2746133;-41
2024/01/04 03:21:18;;;;;;;;;12.00;10.00;;;;;7.95;100.00;98067.66;6278703;20;2784720;-42
2024/01/04 03:23:48;;;;;;;;;11.00;10.40;;;;;8.03;100.00;98078.63;6300505;20;2792053;-41
2024/01/04 03:26:15;;;;;;;;;9.00;9.00;;;;;8.01;100.00;98077.91;6278771;20;2754736;-40
2024/01/04 03:28:43;;;;;;;;;6.00;6.00;;;;;7.87;100.00;98072.75;6280040;20;2744076;-40
2024/01/04 03:31:11;;;;;;;;;11.50;10.50;;;;;7.94;100.00;98076.66;6277447;20;2797270;-41
2024/01/04 03:33:41;;;;;;;;;13.20;10.80;;;;;7.83;100.00;98058.78;6300930;20;2791971;-41
2024/01/04 03:36:11;;;;;;;;;17.00;12.00;;;;;7.77;100.00;98063.75;6277398;20;2806502;-41
2024/01/04 03:38:39;;;;;;;;;12.00;12.00;;;;;7.57;100.00;98067.91;6312001;20;2789878;-42
2024/01/04 03:41:07;;;;;;;;;12.00;10.50;;;;;7.57;100.00;98074.09;6278841;20;2789888;-41
2024/01/04 03:43:36;;;;;;;;;12.00;12.00;;;;;7.73;100.00;98072.97;6273614;20;3517087;-41
2024/01/04 03:46:10;;;;;;;;;5.00;5.00;;;;;7.58;100.00;98062.47;6326720;20;1805538;-40
2024/01/04 03:48:40;;;;;;;;;12.50;11.00;;;;;7.52;100.00;98062.06;6312632;20;2789991;-39
2024/01/04 03:51:12;;;;;;;;;14.00;9.00;;;;;7.60;100.00;98052.50;6280539;20;2763798;-41
2024/01/04 03:53:41;;;;;;;;;14.67;11.33;;;;;7.46;100.00;98042.88;6275834;20;2792079;-42
2024/01/04 03:56:09;;;;;;;;;16.33;12.67;;;;;7.67;100.00;98037.72;6306856;20;3526396;-40
2024/01/04 03:58:39;;;;;;;;;14.80;11.00;;;;;7.42;100.00;98044.06;6332029;20;2798211;-40
2024/01/04 04:01:08;;;;;;;;;17.00;11.40;;;;;7.67;100.00;98059.09;6302663;20;2800376;-40
2024/01/04 04:03:36;;;;;;;;;17.00;15.00;;;;;7.63;100.00;98068.28;6277833;20;2810725;-40
2024/01/04 04:06:07;;;;;;;;;13.67;13.33;;;;;7.60;100.00;98068.53;6272926;20;2789937;-40
2024/01/04 04:08:36;;;;;;;;;18.00;14.33;;;;;7.60;100.00;98063.19;6305127;20;3544036;-40
2024/01/04 04:11:14;;;;;;;;;14.50;12.00;;;;;7.75;100.00;98063.84;6306520;20;2793026;-40
2024/01/04 04:13:42;;;;;;;;;15.00;12.50;;;;;7.19;100.00;98029.78;6275366;20;2796113;-40
2024/01/04 04:16:11;;;;;;;;;14.33;11.33;;;;;7.20;100.00;98035.97;6278413;20;3522190;-41
2024/01/04 04:18:40;;;;;;;;;12.80;11.00;;;;;7.18;100.00;98037.88;6330475;20;2794066;-40
2024/01/04 04:21:08;;;;;;;;;15.00;11.00;;;;;7.15;100.00;98036.31;6274383;20;2791063;-43
2024/01/04 04:23:36;;;;;;;;;9.00;7.00;;;;;6.88;100.00;98033.00;6274875;20;2757617;-40
2024/01/04 04:26:06;;;;;;;;;12.80;11.80;;;;;7.14;100.00;98036.44;6298654;20;2784727;-41
2024/01/04 04:28:34;;;;;;;;;16.00;11.00;;;;;6.87;100.00;98021.47;6278458;20;2802414;-40
2024/01/04 04:31:03;;;;;;;;;12.50;12.50;;;;;6.97;100.00;98018.97;6276424;20;2794076;-41
2024/01/04 04:33:31;;;;;;;;;27.50;17.50;;;;;6.81;100.00;98021.91;6276811;20;2841987;-40
2024/01/04 04:35:59;;;;;;;;;20.33;18.67;;;;;6.85;100.00;98031.41;6275297;20;3559622;-41
2024/01/04 04:38:29;;;;;;;;;22.00;16.00;;;;;6.70;100.00;98024.53;6302637;20;2496248;-41
2024/01/04 04:40:58;;;;;;;;;14.00;12.33;;;;;6.79;100.00;98022.06;6273255;20;2789865;-42
2024/01/04 04:43:27;;;;;;;;;11.40;10.00;;;;;6.94;100.00;98032.56;6330074;20;2785705;-40
2024/01/04 04:45:57;;;;;;;;;21.00;16.00;;;;;6.76;100.00;98042.75;6274274;20;3555522;-41
2024/01/04 04:48:25;;;;;;;;;15.50;14.00;;;;;6.77;100.00;98045.31;6304753;20;2805648;-41
2024/01/04 04:50:54;;;;;;;;;17.67;14.67;;;;;6.71;100.00;98048.41;6272071;20;3545110;-39
2024/01/04 04:53:22;;;;;;;;;24.00;20.00;;;;;6.64;100.00;98046.31;6272975;20;2500395;-41
2024/01/04 04:55:51;;;;;;;;;18.33;16.00;;;;;6.81;100.00;98046.78;6274053;20;3545159;-40
2024/01/04 04:58:19;;;;;;;;;19.00;18.50;;;;;6.90;100.00;98063.06;6276559;20;2829448;-41
2024/01/04 05:00:47;;;;;;;;;17.00;16.00;;;;;7.21;100.00;98078.56;6279761;20;2822202;-41
2024/01/04 05:03:15;;;;;;;;;15.00;15.00;;;;;6.92;100.00;98066.50;6273894;20;3541962;-40
2024/01/04 05:05:43;;;;;;;;;18.00;15.00;;;;;7.06;100.00;98071.69;6305076;20;2804445;-40
2024/01/04 05:08:11;;;;;;;;;19.00;12.00;;;;;7.29;100.00;98077.13;6275531;20;2829483;-40
2024/01/04 05:10:41;;;;;;;;;13.40;11.00;;;;;7.28;100.00;98070.09;6302170;20;2791981;-40
2024/01/04 05:13:11;;;;;;;;;16.60;10.40;;;;;7.50;100.00;98072.00;6299200;20;2802450;-40
2024/01/04 05:15:39;;;;;;;;;15.00;11.67;;;;;7.38;100.00;98063.13;6277132;20;2790980;-40
2024/01/04 05:18:09;;;;;;;;;16.33;12.00;;;;;7.43;100.00;98055.63;6303372;20;2808685;-40
2024/01/04 05:20:38;;;;;;;;;15.00;12.00;;;;;7.63;100.00;98057.59;6303194;20;3515879;-40
2024/01/04 05:23:07;;;;;;;;;12.20;12.20;;;;;7.60;100.00;98052.50;6329503;20;2796111;-40
2024/01/04 05:25:35;;;;;;;;;17.50;15.00;;;;;7.61;100.00;98064.91;6276783;20;2819283;-40
2024/01/04 05:28:07;;;;;;;;;13.00;11.00;;;;;7.72;100.00;98068.59;6276555;20;2792989;-41
2024/01/04 05:30:37;;;;;;;;;17.60;14.00;;;;;7.55;100.00;98070.69;6298090;20;2802484;-41
2024/01/04 05:33:05;;;;;;;;;17.33;12.33;;;;;7.70;100.00;98077.56;6274837;20;3536781;-41
2024/01/04 05:35:34;;;;;;;;;15.33;12.00;;;;;7.60;100.00;98068.53;6304492;20;3522635;-41
2024/01/04 05:38:03;;;;;;;;;16.00;15.00;;;;;7.29;100.00;98059.28;6303879;20;3546171;-41
2024/01/04 05:40:31;;;;;;;;;19.50;16.00;;;;;7.27;100.00;98063.91;6305550;20;2821119;-40
2024/01/04 05:43:01;;;;;;;;;53.67;35.33;;;;;7.14;100.00;98061.31;6274845;20;3642112;-41
2024/01/04 05:45:30;;;;;;;;;84.00;60.67;;;;;7.13;100.00;98075.59;6270923;20;3648189;-40
2024/01/04 05:47:58;;;;;;;;;100.00;69.00;;;;;6.93;100.00;98073.53;6303134;20;1952629;-40
2024/01/04 05:50:27;;;;;;;;;61.00;49.50;;;;;6.94;100.00;98070.75;6275045;20;2855654;-41
2024/01/04 05:52:58;;;;;;;;;35.50;33.00;;;;;6.98;100.00;98066.91;6279936;20;2850333;-40
2024/01/04 05:55:25;;;;;;;;;25.00;20.00;;;;;6.87;100.00;98076.63;6277962;20;2500327;-40
2024/01/04 05:57:53;;;;;;;;;16.00;14.50;;;;;6.90;100.00;98063.06;6281380;20;2800801;-40
2024/01/04 06:00:23;;;;;;;;;15.20;11.80;;;;;6.64;100.00;98063.16;6301691;20;2810749;-40
2024/01/04 06:02:52;;;;;;;;;19.33;17.33;;;;;6.79;100.00;98069.19;6278670;20;3547232;-40
2024/01/04 06:05:20;;;;;;;;;20.00;15.00;;;;;6.96;100.00;98068.84;6310240;20;3566923;-40
2024/01/04 06:07:48;;;;;;;;;16.50;15.00;;;;;6.79;100.00;98080.72;6308791;20;2807595;-40
2024/01/04 06:10:16;;;;;;;;;12.00;12.00;;;;;6.92;100.00;98074.50;6280389;20;2785738;-41
2024/01/04 06:12:44;;;;;;;;;15.50;14.00;;;;;7.10;100.00;98066.97;6276474;20;2802428;-41
2024/01/04 06:15:12;;;;;;;;;17.00;15.00;;;;;7.09;100.00;98066.13;6280043;20;2822247;-40
2024/01/04 06:17:42;;;;;;;;;13.60;10.00;;;;;7.32;100.00;98074.22;6305084;20;2787775;-41
2024/01/04 06:20:11;;;;;;;;;14.33;12.00;;;;;7.39;100.00;98086.16;6276352;20;3525263;-42
2024/01/04 06:22:39;;;;;;;;;16.00;14.00;;;;;7.37;100.00;98082.75;6311296;20;2801448;-40
2024/01/04 06:25:10;;;;;;;;;5.50;5.50;;;;;7.23;100.00;98076.63;6299695;20;1819186;-40
2024/01/04 06:27:39;;;;;;;;;15.00;15.00;;;;;7.25;100.00;98089.88;6310976;20;2781503;-40
2024/01/04 06:30:08;;;;;;;;;18.00;14.50;;;;;7.37;100.00;98091.63;6310136;20;2816079;-41
2024/01/04 06:32:37;;;;;;;;;18.67;18.33;;;;;7.24;100.00;98088.13;6278719;20;3561781;-40
2024/01/04 06:35:05;;;;;;;;;17.00;14.00;;;;;7.26;100.00;98095.06;6280715;20;2811871;-40
2024/01/04 06:37:36;;;;;;;;;12.33;12.33;;;;;6.92;100.00;98093.16;6277960;20;3528413;-41
2024/01/04 06:40:08;;;;;;;;;20.00;16.00;;;;;6.91;100.00;98096.81;6309537;20;3547200;-40
2024/01/04 06:42:36;;;;;;;;;21.00;17.00;;;;;6.92;100.00;98112.69;6276937;20;2823275;-42
2024/01/04 06:45:05;;;;;;;;;22.50;21.00;;;;;6.78;100.00;98111.03;6279060;20;2500344;-40
2024/01/04 06:47:33;;;;;;;;;22.50;21.50;;;;;6.46;100.00;98113.31;6276140;20;2483694;-41
2024/01/04 06:50:03;;;;;;;;;17.67;15.33;;;;;6.85;100.00;98113.28;6277630;20;2812955;-40
2024/01/04 06:52:45;;;;;;;;;21.67;16.33;;;;;6.54;100.00;98116.28;6307911;20;3554457;-40
2024/01/04 06:55:14;;;;;;;;;11.00;10.00;;;;;6.46;100.00;98117.78;6276868;20;2785817;-40
2024/01/04 06:57:42;;;;;;;;;15.50;13.50;;;;;6.93;100.00;98121.56;6280194;20;2819011;-42
2024/01/04 07:00:11;;;;;;;;;23.00;20.00;;;;;6.82;100.00;98117.84;6280746;20;2835818;-40
2024/01/04 07:02:41;;;;;;;;;34.67;24.00;;;;;6.93;100.00;98121.56;6278617;20;3609646;-50
2024/01/04 07:05:11;;;;;;;;;29.00;25.67;;;;;6.77;100.00;98120.00;6310481;20;3591010;-47
2024/01/04 07:07:40;;;;;;;;;32.50;27.50;;;;;6.66;100.00;98122.59;6270737;20;2861734;-49
2024/01/04 07:10:09;;;;;;;;;20.67;18.00;;;;;6.48;100.00;98115.88;6278865;20;3557521;-49
2024/01/04 07:12:39;;;;;;;;;20.00;20.00;;;;;6.53;100.00;98109.25;6271026;20;2500958;-51
2024/01/04 07:15:07;;;;;;;;;17.00;17.00;;;;;6.55;100.00;98104.66;6274081;20;2500270;-52
2024/01/04 07:17:35;;;;;;;;;21.50;20.00;;;;;6.84;100.00;98112.38;6276110;20;2500333;-50
2024/01/04 07:20:04;;;;;;;;;21.50;21.50;;;;;6.62;100.00;98110.41;6274296;20;2500360;-48
2024/01/04 07:22:33;;;;;;;;;28.00;23.00;;;;;6.57;100.00;98112.56;6274521;20;2839874;-51
2024/01/04 07:25:02;;;;;;;;;28.00;23.00;;;;;6.43;100.00;98099.34;6273030;20;2842985;-50
2024/01/04 07:27:31;;;;;;;;;29.00;22.00;;;;;6.68;100.00;98096.63;6275333;20;2843092;-50
2024/01/04 07:30:00;;;;;;;;;29.00;22.00;;;;;6.71;100.00;98095.56;6274815;20;2851316;-51
2024/01/04 07:32:28;;;;;;;;;24.50;21.50;;;;;6.64;100.00;98089.84;6272646;20;2491941;-50
2024/01/04 07:34:56;;;;;;;;;26.50;26.00;;;;;6.50;100.00;98095.28;6280807;20;2829481;-50
2024/01/04 07:37:41;;;;;;;;;22.50;20.50;;;;;6.62;100.00;98091.75;6275829;20;2500272;-49
2024/01/04 07:40:11;;;;;;;;;23.50;21.50;;;;;6.89;100.00;98099.56;6278105;20;2826357;-48
2024/01/04 07:42:41;;;;;;;;;26.00;19.50;;;;;6.81;100.00;98100.13;6277116;20;2845066;-51
2024/01/04 07:45:10;;;;;;;;;29.67;22.33;;;;;7.17;100.00;98101.09;6278543;20;3589887;-51
2024/01/04 07:47:39;;;;;;;;;23.00;22.00;;;;;7.44;100.00;98094.69;6275352;20;2839827;-52
2024/01/04 07:50:08;;;;;;;;;20.00;16.00;;;;;7.44;100.00;98092.03;6278681;20;2823234;-51
2024/01/04 07:52:38;;;;;;;;;18.00;17.00;;;;;8.11;100.00;98089.59;6276635;20;3566950;-51
2024/01/04 07:55:07;;;;;;;;;15.00;15.00;;;;;8.24;100.00;98081.47;6312570;20;2799302;-52
2024/01/04 07:57:35;;;;;;;;;17.00;13.00;;;;;8.59;100.00;98087.72;6281226;20;2815899;-51
2024/01/04 08:00:04;;;;;;;;;19.33;16.67;;;;;8.16;100.00;98080.34;6277469;20;3554540;-53
2024/01/04 08:02:33;;;;;;;;;17.33;14.67;;;;;8.30;100.00;98082.81;6307924;20;3527437;-51
2024/01/04 08:05:01;;;;;;;;;15.50;11.50;;;;;8.63;100.00;98078.47;6299665;20;2793113;-53
2024/01/04 08:07:31;;;;;;;;;16.40;12.60;;;;;8.91;98.22;98088.66;6297666;20;2808625;-50
2024/01/04 08:09:59;;;;;;;;;14.33;11.33;;;;;9.17;96.66;98088.41;6276426;20;3520070;-48
2024/01/04 08:12:28;;;;;;;;;14.67;11.33;;;;;9.01;95.43;98089.63;6303108;20;2789956;-49
2024/01/04 08:14:56;;;;;;;;;15.00;12.00;;;;;9.07;94.37;98096.31;6304906;20;3521160;-50
2024/01/04 08:17:25;;;;;;;;;12.00;11.00;;;;;9.07;96.62;98093.63;6306371;20;3513889;-51
2024/01/04 08:19:54;;;;;;;;;12.33;10.33;;;;;9.31;93.98;98106.00;6308371;20;2789034;-51
2024/01/04 08:22:22;;;;;;;;;12.00;9.00;;;;;9.16;94.40;98105.41;6306208;20;2767079;-54
2024/01/04 08:24:50;;;;;;;;;18.50;16.00;;;;;9.48;93.11;98105.47;6279280;20;2827515;-54
2024/01/04 08:27:21;;;;;;;;;10.00;10.00;;;;;9.47;91.76;98110.97;6274974;20;2789935;-52
2024/01/04 08:29:50;;;;;;;;;9.80;8.00;;;;;9.64;90.17;98113.94;6303610;20;2756525;-50
2024/01/04 08:32:20;;;;;;;;;25.00;21.33;;;;;9.54;91.18;98109.47;6276728;20;2841027;-54
2024/01/04 08:34:48;;;;;;;;;12.00;12.00;;;;;9.45;91.44;98108.38;6313663;20;2785757;-53
2024/01/04 08:37:18;;;;;;;;;10.80;10.80;;;;;9.61;90.65;98121.38;6301638;20;2787876;-52
2024/01/04 08:39:47;;;;;;;;;12.67;12.67;;;;;9.68;91.89;98119.88;6275728;20;2788974;-51
2024/01/04 08:42:15;;;;;;;;;10.33;10.33;;;;;9.61;89.59;98122.25;6306873;20;2791973;-52
2024/01/04 08:44:49;;;;;;;;;52.67;38.33;;;;;9.74;90.59;98129.25;6308507;20;3625296;-51
2024/01/04 08:47:16;;;;;;;;;11.50;11.00;;;;;9.68;91.08;98133.28;6312036;20;2794073;-54
2024/01/04 08:49:45;;;;;;;;;11.67;10.33;;;;;9.83;90.02;98144.56;6278449;20;2790938;-58
2024/01/04 08:52:13;;;;;;;;;12.00;10.50;;;;;9.63;90.82;98146.22;6313212;20;2789162;-53
2024/01/04 08:54:42;;;;;;;;;14.00;14.00;;;;;9.50;92.06;98142.84;6275958;20;2801489;-49
2024/01/04 08:57:14;;;;;;;;;9.86;9.86;;;;;9.66;90.44;98148.63;6348446;20;1796236;-52
2024/01/04 08:59:43;;;;;;;;;15.50;15.50;;;;;9.54;92.15;98142.47;6310131;20;2814951;-53
2024/01/04 09:02:11;;;;;;;;;15.67;11.00;;;;;9.77;91.09;98145.06;6275464;20;3529423;-53
2024/01/04 09:04:39;;;;;;;;;11.00;11.00;;;;;9.94;89.18;98141.00;6303718;20;2792033;-54
2024/01/04 09:07:08;;;;;;;;;12.00;12.00;;;;;9.91;89.02;98141.25;6276067;20;3529479;-51
2024/01/04 09:09:36;;;;;;;;;16.00;14.00;;;;;10.17;87.43;98141.75;6276717;20;2816529;-51
2024/01/04 09:12:04;;;;;;;;;16.50;12.50;;;;;10.17;86.46;98141.75;6273542;20;2786851;-53
2024/01/04 09:14:36;;;;;;;;;10.00;9.14;;;;;10.42;84.53;98135.16;6314615;20;1808645;-51
2024/01/04 09:17:07;;;;;;;;;8.00;6.57;;;;;10.57;82.40;98136.53;6349466;20;1800356;-54
2024/01/04 09:19:35;;;;;;;;;10.00;8.00;;;;;10.71;80.86;98136.16;6304304;20;2770096;-53
2024/01/04 09:22:04;;;;;;;;;10.00;7.00;;;;;10.88;79.05;98123.13;6275815;20;2757590;-52
2024/01/04 09:24:32;;;;;;;;;7.50;7.50;;;;;10.97;77.19;98141.09;6277742;20;2733651;-54
2024/01/04 09:27:02;;;;;;;;;8.00;8.00;;;;;11.08;77.15;98135.63;6278898;20;2746118;-51
2024/01/04 09:29:31;;;;;;;;;7.00;7.00;;;;;11.25;76.82;98135.97;6268967;20;2737838;-54
2024/01/04 09:32:00;;;;;;;;;7.00;6.00;;;;;11.42;77.65;98143.34;6267925;20;2744066;-52
2024/01/04 09:34:29;;;;;;;;;9.00;8.00;;;;;11.38;77.35;98150.00;6270126;20;2749331;-52
2024/01/04 09:36:57;;;;;;;;;7.50;7.50;;;;;11.34;76.29;98148.56;6270128;20;2739905;-52
2024/01/04 09:39:24;;;;;;;;;10.00;9.00;;;;;11.34;78.71;98156.63;6269237;20;2773211;-52
2024/01/04 09:41:53;;;;;;;;;10.00;7.00;;;;;11.71;77.33;98147.94;6272072;20;2746221;-51
2024/01/04 09:44:22;;;;;;;;;8.00;7.00;;;;;11.95;75.69;98161.84;6269469;20;2746123;-50
2024/01/04 09:46:54;;;;;;;;;10.00;9.00;;;;;11.94;76.70;98149.41;6273305;20;2756547;-52
2024/01/04 09:49:24;;;;;;;;;5.00;5.00;;;;;12.14;74.38;98152.09;6266837;20;2741005;-51
2024/01/04 09:51:54;;;;;;;;;7.20;6.40;;;;;12.49;72.00;98146.97;6294834;20;2741388;-51
2024/01/04 09:54:23;;;;;;;;;11.00;11.00;;;;;12.50;72.28;98139.72;6293091;20;2786769;-52
2024/01/04 09:56:54;;;;;;;;;7.00;7.00;;;;;12.21;71.82;98147.84;6268624;20;2748400;-51
2024/01/04 09:59:22;;;;;;;;;7.00;6.00;;;;;12.32;70.72;98161.13;6268528;20;2746139;-45
2024/01/04 10:01:50;;;;;;;;;7.00;7.00;;;;;12.49;69.95;98167.66;6271702;20;2741960;-41
2024/01/04 10:04:18;;;;;;;;;3.00;1.00;;;;;12.49;63.32;98160.44;6273111;20;3436777;-43
2024/01/04 10:06:47;;;;;;;;;1.25;0.00;;;;;12.81;59.28;98169.16;6284278;20;1803981;-41
2024/01/04 10:09:28;;;;;;;;;0.00;0.00;;;;;12.89;57.99;98163.88;6300485;20;2731658;-42
2024/01/04 10:12:08;;;;;;;;;0.00;0.00;;;;;13.29;56.51;98155.50;6286167;20;1803523;-41
2024/01/04 10:14:37;;;;;;;;;0.00;0.00;;;;;13.09;55.83;98161.97;6302965;20;2724275;-44
2024/01/04 10:17:05;;;;;;;;;1.00;1.00;;;;;13.24;56.97;98157.78;6269597;20;2727473;-41
2024/01/04 10:19:33;;;;;;;;;8.00;8.00;;;;;13.51;58.78;98165.06;6272130;20;2738851;-42
2024/01/04 10:22:08;;;;;;;;;15.00;12.00;;;;;13.81;59.33;98171.13;6266626;20;2793064;-42
2024/01/04 10:24:38;;;;;;;;;11.50;11.50;;;;;13.91;60.76;98165.66;6300587;20;2788869;-43
2024/01/04 10:27:08;;;;;;;;;14.50;11.50;;;;;13.64;61.43;98171.94;6265295;20;2803451;-42
2024/01/04 10:29:38;;;;;;;;;3.00;3.00;;;;;13.62;62.19;98177.50;6266334;20;2752375;-42
2024/01/04 10:32:12;;;;;;;;;7.00;5.00;;;;;13.32;61.68;98165.16;6269643;20;2750367;-43
2024/01/04 10:34:41;;;;;;;;;2.50;2.50;;;;;13.78;57.61;98179.53;6268953;20;2749302;-43
2024/01/04 10:37:17;;;;;;;;;4.00;3.00;;;;;13.97;57.41;98181.22;6269471;20;2742027;-42
2024/01/04 10:39:57;;;;;;;;;2.00;2.00;;;;;13.81;57.58;98163.88;6271098;20;2752408;-43
2024/01/04 10:42:26;;;;;;;;;19.00;18.00;;;;;14.27;57.57;98159.25;6271318;20;3572136;-43
2024/01/04 10:44:55;;;;;;;;;3.50;3.00;;;;;13.81;55.11;98160.31;6275429;20;2749255;-43
2024/01/04 10:47:24;;;;;;;;;3.00;3.00;;;;;13.69;55.69;98167.81;6274581;20;2741948;-42
2024/01/04 10:49:59;;;;;;;;;3.00;2.00;;;;;14.11;54.55;98175.28;6273257;20;2744065;-44
2024/01/04 10:52:31;;;;;;;;;1.00;0.50;;;;;14.24;53.19;98173.06;6278330;20;2729633;-41
2024/01/04 10:55:02;;;;;;;;;3.50;3.50;;;;;14.36;55.45;98167.44;6275531;20;2751383;-40
2024/01/04 10:57:32;;;;;;;;;4.00;3.00;;;;;14.60;54.33;98173.06;6275018;20;2736792;-44
2024/01/04 11:00:06;;;;;;;;;3.00;3.00;;;;;14.34;55.26;98169.44;6273813;20;2750755;-43
2024/01/04 11:02:37;;;;;;;;;4.00;4.00;;;;;15.70;53.86;98170.63;6274851;20;2743020;-47
2024/01/04 11:05:09;;;;;;;;;2.00;2.00;;;;;14.53;54.28;98171.97;6278044;20;2630524;-41
2024/01/04 11:07:40;;;;;;;;;2.00;2.00;;;;;13.97;54.65;98171.28;6273515;20;2738921;-40
2024/01/04 11:10:12;;;;;;;;;1.00;1.00;;;;;13.78;55.21;98174.97;6290142;20;1807718;-42
2024/01/04 11:12:41;;;;;;;;;2.00;1.00;;;;;13.82;55.24;98184.47;6301566;20;2734699;-41
2024/01/04 11:15:12;;;;;;;;;2.50;1.50;;;;;13.69;54.03;98183.97;6273064;20;2739979;-41